createdAt,value
2019-02-21T00:01:04.454Z,7.60
2019-02-21T00:03:33.808Z,7.50
2019-02-21T00:06:03.275Z,7.60
2019-02-21T00:08:32.749Z,7.60
2019-02-21T00:11:02.276Z,7.60
2019-02-21T00:13:31.724Z,7.60
2019-02-21T00:16:01.167Z,7.60
2019-02-21T00:18:30.640Z,7.70
2019-02-21T00:21:00.496Z,7.80
2019-02-21T00:23:30.271Z,7.80
2019-02-21T00:26:00.165Z,7.80
2019-02-21T00:28:29.617Z,7.80
2019-02-21T00:30:59.136Z,7.80
2019-02-21T00:33:28.537Z,7.80
2019-02-21T00:35:58.025Z,7.80
2019-02-21T00:38:27.434Z,7.80
2019-02-21T00:40:56.934Z,7.90
2019-02-21T00:43:26.234Z,8.10
2019-02-21T00:45:55.812Z,8.10
2019-02-21T00:48:25.241Z,8.20
2019-02-21T00:50:54.668Z,8.10
2019-02-21T00:53:24.121Z,8.20
2019-02-21T00:55:53.532Z,8.20
2019-02-21T00:58:23.248Z,8.20
2019-02-21T01:00:52.673Z,8.30
2019-02-21T01:03:22.070Z,8.30
2019-02-21T01:05:51.561Z,8.30
2019-02-21T01:08:21.359Z,8.30
2019-02-21T01:10:50.766Z,8.20
2019-02-21T01:13:20.173Z,8.20
2019-02-21T01:15:49.708Z,8.30
2019-02-21T01:18:19.589Z,8.30
2019-02-21T01:20:49.569Z,8.30
2019-02-21T01:23:19.473Z,8.30
2019-02-21T01:25:49.062Z,8.30
2019-02-21T01:28:18.706Z,8.40
2019-02-21T01:30:56.688Z,8.30
2019-02-21T01:33:19.355Z,8.40
2019-02-21T01:35:48.814Z,8.30
2019-02-21T01:38:18.447Z,8.40
2019-02-21T01:40:47.867Z,8.40
2019-02-21T01:43:17.365Z,8.40
2019-02-21T01:45:46.621Z,8.40
2019-02-21T01:48:16.093Z,8.50
2019-02-21T01:50:45.857Z,8.60
2019-02-21T01:53:15.283Z,8.70
2019-02-21T01:55:45.393Z,8.70
2019-02-21T01:58:14.820Z,8.70
2019-02-21T02:00:44.317Z,8.70
2019-02-21T02:03:13.668Z,8.60
2019-02-21T02:05:43.061Z,8.70
2019-02-21T02:08:12.463Z,8.70
2019-02-21T02:10:41.969Z,8.60
2019-02-21T02:13:23.709Z,8.60
2019-02-21T02:15:42.556Z,8.50
2019-02-21T02:18:12.000Z,8.50
2019-02-21T02:20:41.442Z,8.40
2019-02-21T02:23:10.841Z,8.30
2019-02-21T02:25:40.304Z,8.40
2019-02-21T02:28:09.703Z,8.30
2019-02-21T02:30:39.234Z,8.20
2019-02-21T02:33:08.763Z,8.20
2019-02-21T02:35:38.246Z,8.20
2019-02-21T02:38:07.681Z,8.10
2019-02-21T02:40:37.140Z,8.10
2019-02-21T02:43:06.614Z,8.10
2019-02-21T02:45:36.113Z,8.00
2019-02-21T02:48:05.493Z,8.10
2019-02-21T02:50:34.943Z,8.00
2019-02-21T02:53:04.730Z,7.90
2019-02-21T02:55:34.241Z,7.80
2019-02-21T02:58:06.591Z,7.80
2019-02-21T03:00:35.999Z,7.70
2019-02-21T03:03:05.374Z,7.60
2019-02-21T03:05:35.661Z,7.60
2019-02-21T03:08:05.115Z,7.60
2019-02-21T03:10:34.540Z,7.60
2019-02-21T03:13:04.025Z,7.60
2019-02-21T03:15:33.440Z,7.60
2019-02-21T03:18:02.829Z,7.50
2019-02-21T03:20:32.421Z,7.50
2019-02-21T03:23:02.004Z,7.50
2019-02-21T03:25:31.417Z,7.50
2019-02-21T03:28:01.153Z,7.40
2019-02-21T03:30:30.561Z,7.40
2019-02-21T03:33:00.107Z,7.40
2019-02-21T03:35:29.633Z,7.30
2019-02-21T03:37:59.021Z,7.40
2019-02-21T03:40:28.547Z,7.40
2019-02-21T03:42:58.112Z,7.40
2019-02-21T03:45:27.588Z,7.40
2019-02-21T03:47:57.059Z,7.50
2019-02-21T03:50:26.506Z,7.50
2019-02-21T03:52:56.050Z,7.50
2019-02-21T03:55:25.433Z,7.50
2019-02-21T03:57:54.843Z,7.50
2019-02-21T04:00:24.473Z,7.50
2019-02-21T04:02:54.320Z,7.70
2019-02-21T04:05:23.726Z,7.60
2019-02-21T04:07:53.166Z,7.70
2019-02-21T04:10:22.977Z,7.70
2019-02-21T04:12:52.667Z,7.60
2019-02-21T04:15:22.148Z,7.60
2019-02-21T04:17:51.598Z,7.60
2019-02-21T04:20:21.060Z,7.60
2019-02-21T04:22:50.468Z,7.60
2019-02-21T04:25:19.950Z,7.60
2019-02-21T04:27:49.393Z,7.60
2019-02-21T04:30:18.758Z,7.50
2019-02-21T04:32:48.201Z,7.40
2019-02-21T04:35:17.693Z,7.50
2019-02-21T04:37:47.160Z,7.50
2019-02-21T04:40:16.682Z,7.50
2019-02-21T04:42:46.112Z,7.60
2019-02-21T04:45:15.634Z,7.50
2019-02-21T04:47:45.109Z,7.50
2019-02-21T04:50:14.511Z,7.50
2019-02-21T04:52:43.943Z,7.50
2019-02-21T04:55:13.448Z,7.40
2019-02-21T04:57:42.990Z,7.40
2019-02-21T05:00:12.932Z,7.40
2019-02-21T05:02:42.353Z,7.40
2019-02-21T05:05:11.880Z,7.50
2019-02-21T05:07:41.335Z,7.40
2019-02-21T05:10:10.741Z,7.40
2019-02-21T05:12:40.152Z,7.50
2019-02-21T05:15:09.727Z,7.50
2019-02-21T05:17:39.117Z,7.50
2019-02-21T05:20:08.668Z,7.50
2019-02-21T05:22:38.209Z,7.50
2019-02-21T05:25:07.677Z,7.50
2019-02-21T05:27:41.124Z,7.50
2019-02-21T05:30:14.067Z,7.50
2019-02-21T05:32:59.138Z,7.50
2019-02-21T05:35:46.135Z,7.50
2019-02-21T05:38:37.541Z,7.50
2019-02-21T05:41:26.003Z,7.50
2019-02-21T05:44:26.514Z,7.60
2019-02-21T05:47:14.846Z,7.60
2019-02-21T05:50:15.424Z,7.60
2019-02-21T05:53:06.981Z,7.70
2019-02-21T05:55:54.501Z,7.70
2019-02-21T05:58:41.564Z,7.70
2019-02-21T06:01:19.293Z,7.80
2019-02-21T06:04:06.009Z,7.80
2019-02-21T06:06:54.347Z,7.80
2019-02-21T06:09:48.918Z,7.80
2019-02-21T06:12:40.453Z,7.80
2019-02-21T06:15:28.838Z,7.90
2019-02-21T06:18:05.857Z,7.90
2019-02-21T06:21:06.569Z,8.00
2019-02-21T06:24:04.195Z,8.00
2019-02-21T06:27:01.807Z,7.90
2019-02-21T06:29:40.232Z,7.80
2019-02-21T06:32:14.228Z,7.80
2019-02-21T06:34:40.910Z,7.90
2019-02-21T06:37:12.553Z,7.80
2019-02-21T06:39:41.533Z,7.80
2019-02-21T06:42:10.960Z,7.80
2019-02-21T06:44:40.479Z,7.80
2019-02-21T06:47:10.046Z,7.90
2019-02-21T06:49:39.799Z,8.00
2019-02-21T06:52:09.243Z,7.90
2019-02-21T06:54:38.609Z,8.00
2019-02-21T06:57:08.080Z,7.90
2019-02-21T06:59:42.496Z,7.90
2019-02-21T07:02:08.666Z,8.00
2019-02-21T07:04:38.060Z,8.00
2019-02-21T07:07:07.619Z,8.00
2019-02-21T07:09:37.051Z,8.00
2019-02-21T07:12:10.650Z,8.00
2019-02-21T07:14:40.047Z,8.10
2019-02-21T07:17:09.510Z,8.20
2019-02-21T07:19:38.981Z,8.20
2019-02-21T07:22:08.407Z,8.30
2019-02-21T07:24:38.928Z,8.30
2019-02-21T07:27:08.716Z,8.30
2019-02-21T07:29:38.779Z,8.40
2019-02-21T07:32:08.421Z,8.40
2019-02-21T07:34:37.937Z,8.50
2019-02-21T07:37:17.828Z,8.50
2019-02-21T07:39:38.617Z,8.60
2019-02-21T07:42:08.021Z,8.70
2019-02-21T07:44:37.469Z,8.80
2019-02-21T07:47:06.988Z,8.80
2019-02-21T07:49:36.480Z,8.80
2019-02-21T07:52:05.884Z,8.90
2019-02-21T07:54:35.366Z,8.90
2019-02-21T07:57:04.872Z,9.00
2019-02-21T07:59:36.675Z,9.00
2019-02-21T08:02:06.192Z,9.10
2019-02-21T08:04:37.089Z,9.10
2019-02-21T08:07:06.732Z,9.10
2019-02-21T08:09:36.233Z,9.20
2019-02-21T08:12:05.958Z,9.30
2019-02-21T08:14:35.344Z,9.30
2019-02-21T08:17:04.737Z,9.40
2019-02-21T08:19:34.241Z,9.50
2019-02-21T08:22:03.638Z,9.60
2019-02-21T08:24:33.389Z,9.70
2019-02-21T08:27:02.928Z,9.70
2019-02-21T08:29:32.464Z,9.80
2019-02-21T08:32:01.888Z,9.80
2019-02-21T08:34:35.412Z,9.70
2019-02-21T08:37:04.890Z,9.70
2019-02-21T08:39:34.328Z,9.70
2019-02-21T08:42:03.882Z,9.70
2019-02-21T08:44:33.348Z,9.70
2019-02-21T08:47:02.772Z,9.70
2019-02-21T08:49:32.318Z,9.70
2019-02-21T08:52:01.793Z,9.70
2019-02-21T08:54:31.283Z,9.70
2019-02-21T08:57:00.984Z,9.70
2019-02-21T08:59:30.414Z,9.70
2019-02-21T09:01:59.832Z,9.80
2019-02-21T09:04:29.276Z,9.90
2019-02-21T09:06:58.723Z,10.00
2019-02-21T09:09:28.320Z,10.10
2019-02-21T09:11:57.867Z,10.20
2019-02-21T09:14:28.358Z,10.30
2019-02-21T09:16:57.844Z,10.40
2019-02-21T09:19:27.273Z,10.40
2019-02-21T09:21:56.731Z,10.50
2019-02-21T09:24:38.243Z,10.60
2019-02-21T09:27:00.140Z,10.70
2019-02-21T09:29:28.626Z,10.80
2019-02-21T09:31:58.269Z,10.90
2019-02-21T09:34:27.753Z,10.80
2019-02-21T09:36:57.178Z,10.90
2019-02-21T09:39:26.544Z,10.90
2019-02-21T09:41:56.018Z,10.90
2019-02-21T09:44:27.396Z,11.00
2019-02-21T09:46:56.619Z,11.00
2019-02-21T09:49:26.026Z,11.10
2019-02-21T09:51:57.996Z,11.30
2019-02-21T09:54:27.765Z,11.40
2019-02-21T09:56:57.198Z,11.50
2019-02-21T09:59:28.717Z,11.60
2019-02-21T10:01:57.866Z,11.60
2019-02-21T10:04:32.225Z,11.60
2019-02-21T10:06:58.550Z,11.50
2019-02-21T10:09:27.989Z,11.70
2019-02-21T10:11:59.164Z,11.70
2019-02-21T10:14:28.833Z,11.70
2019-02-21T10:16:58.299Z,11.70
2019-02-21T10:19:28.194Z,11.60
2019-02-21T10:21:57.658Z,11.60
2019-02-21T10:24:27.138Z,11.50
2019-02-21T10:26:57.027Z,11.50
2019-02-21T10:29:26.546Z,11.50
2019-02-21T10:31:55.992Z,11.60
2019-02-21T10:34:25.473Z,11.60
2019-02-21T10:36:54.983Z,11.60
2019-02-21T10:39:24.608Z,11.80
2019-02-21T10:41:54.366Z,11.90
2019-02-21T10:44:23.768Z,12.00
2019-02-21T10:46:53.497Z,12.00
2019-02-21T10:49:23.443Z,12.10
2019-02-21T10:51:52.830Z,12.10
2019-02-21T10:54:22.249Z,12.10
2019-02-21T10:56:51.723Z,12.10
2019-02-21T10:59:21.611Z,12.00
2019-02-21T11:01:51.123Z,12.00
2019-02-21T11:04:20.537Z,12.10
2019-02-21T11:06:50.035Z,12.10
2019-02-21T11:09:23.498Z,12.10
2019-02-21T11:11:53.059Z,12.20
2019-02-21T11:14:22.517Z,12.20
2019-02-21T11:16:51.906Z,12.20
2019-02-21T11:19:21.503Z,12.10
2019-02-21T11:21:51.224Z,12.00
2019-02-21T11:24:20.634Z,11.90
2019-02-21T11:26:50.070Z,11.80
2019-02-21T11:29:19.434Z,11.80
2019-02-21T11:31:48.876Z,11.80
2019-02-21T11:34:18.428Z,11.90
2019-02-21T11:36:47.874Z,12.00
2019-02-21T11:39:17.674Z,12.20
2019-02-21T11:41:47.140Z,12.30
2019-02-21T11:44:16.558Z,12.50
2019-02-21T11:46:45.946Z,12.40
2019-02-21T11:49:15.719Z,12.20
2019-02-21T11:51:45.178Z,12.20
2019-02-21T11:54:24.157Z,12.20
2019-02-21T11:56:45.696Z,12.30
2019-02-21T11:59:16.135Z,12.30
2019-02-21T12:01:45.733Z,12.40
2019-02-21T12:04:15.183Z,12.50
2019-02-21T12:06:44.661Z,12.60
2019-02-21T12:09:14.145Z,12.80
2019-02-21T12:11:43.664Z,12.90
2019-02-21T12:14:14.009Z,13.10
2019-02-21T12:16:43.349Z,13.30
2019-02-21T12:19:13.039Z,13.40
2019-02-21T12:21:42.422Z,13.50
2019-02-21T12:24:11.842Z,13.50
2019-02-21T12:26:41.256Z,13.40
2019-02-21T12:29:10.692Z,13.40
2019-02-21T12:31:40.150Z,13.30
2019-02-21T12:34:09.569Z,13.20
2019-02-21T12:36:38.987Z,13.00
2019-02-21T12:39:08.687Z,12.90
2019-02-21T12:41:38.133Z,13.00
2019-02-21T12:44:07.520Z,13.00
2019-02-21T12:46:36.981Z,12.90
2019-02-21T12:49:06.480Z,13.00
2019-02-21T12:51:35.875Z,13.10
2019-02-21T12:54:05.363Z,13.20
2019-02-21T12:56:35.149Z,13.30
2019-02-21T12:59:07.559Z,13.40
2019-02-21T13:01:36.946Z,13.60
2019-02-21T13:04:06.333Z,13.70
2019-02-21T13:06:35.750Z,13.70
2019-02-21T13:09:05.710Z,13.80
2019-02-21T13:11:35.638Z,13.80
2019-02-21T13:14:05.195Z,14.00
2019-02-21T13:16:34.610Z,14.10
2019-02-21T13:19:04.093Z,14.10
2019-02-21T13:21:33.546Z,14.00
2019-02-21T13:24:02.962Z,14.00
2019-02-21T13:26:32.429Z,14.10
2019-02-21T13:29:01.900Z,14.10
2019-02-21T13:31:31.345Z,14.10
2019-02-21T13:34:00.821Z,14.10
2019-02-21T13:36:30.221Z,14.10
2019-02-21T13:38:59.629Z,14.00
2019-02-21T13:41:29.017Z,14.00
2019-02-21T13:43:58.421Z,13.90
2019-02-21T13:46:36.847Z,13.90
2019-02-21T13:48:59.090Z,13.80
2019-02-21T13:51:28.481Z,13.80
2019-02-21T13:53:57.934Z,13.80
2019-02-21T13:56:27.416Z,13.80
2019-02-21T13:58:56.969Z,13.80
2019-02-21T14:01:26.487Z,13.80
2019-02-21T14:03:56.652Z,13.80
2019-02-21T14:06:26.415Z,13.70
2019-02-21T14:08:55.835Z,13.60
2019-02-21T14:11:25.245Z,13.50
2019-02-21T14:13:54.643Z,13.40
2019-02-21T14:16:24.125Z,13.30
2019-02-21T14:18:53.601Z,13.20
2019-02-21T14:21:23.347Z,13.20
2019-02-21T14:23:53.255Z,13.10
2019-02-21T14:26:22.738Z,13.10
2019-02-21T14:28:52.253Z,13.20
2019-02-21T14:31:21.647Z,13.20
2019-02-21T14:33:51.887Z,13.20
2019-02-21T14:36:21.645Z,13.30
2019-02-21T14:38:51.093Z,13.30
2019-02-21T14:41:20.552Z,13.30
2019-02-21T14:43:49.973Z,13.30
2019-02-21T14:46:19.440Z,13.30
2019-02-21T14:48:49.272Z,13.40
2019-02-21T14:51:18.792Z,13.30
2019-02-21T14:53:48.256Z,13.40
2019-02-21T14:56:20.003Z,13.30
2019-02-21T14:58:48.813Z,13.30
2019-02-21T15:01:18.254Z,13.30
2019-02-21T15:03:47.727Z,13.30
2019-02-21T15:06:26.821Z,13.20
2019-02-21T15:08:48.334Z,13.20
2019-02-21T15:11:17.992Z,13.20
2019-02-21T15:13:47.766Z,13.20
2019-02-21T15:16:17.586Z,13.20
2019-02-21T15:18:47.497Z,13.10
2019-02-21T15:21:17.123Z,13.10
2019-02-21T15:23:46.935Z,13.00
2019-02-21T15:26:16.934Z,13.00
2019-02-21T15:28:47.171Z,13.00
2019-02-21T15:31:19.478Z,13.00
2019-02-21T15:33:49.444Z,13.00
2019-02-21T15:36:18.902Z,12.90
2019-02-21T15:38:48.420Z,12.80
2019-02-21T15:41:18.941Z,12.80
2019-02-21T15:43:49.240Z,12.80
2019-02-21T15:46:18.969Z,12.80
2019-02-21T15:48:48.965Z,12.80
2019-02-21T15:51:18.941Z,12.90
2019-02-21T15:53:48.436Z,12.90
2019-02-21T15:56:17.961Z,12.90
2019-02-21T15:58:47.727Z,12.90
2019-02-21T16:01:17.581Z,12.90
2019-02-21T16:03:47.163Z,12.80
2019-02-21T16:06:17.002Z,12.80
2019-02-21T16:08:49.023Z,12.80
2019-02-21T16:11:18.501Z,12.80
2019-02-21T16:13:48.079Z,12.70
2019-02-21T16:16:17.866Z,12.80
2019-02-21T16:18:47.632Z,12.70
2019-02-21T16:21:17.153Z,12.70
2019-02-21T16:23:47.446Z,12.70
2019-02-21T16:26:17.109Z,12.60
2019-02-21T16:28:46.562Z,12.60
2019-02-21T16:31:15.991Z,12.60
2019-02-21T16:33:45.949Z,12.60
2019-02-21T16:36:15.414Z,12.60
2019-02-21T16:38:45.840Z,12.50
2019-02-21T16:41:16.233Z,12.50
2019-02-21T16:43:46.490Z,12.40
2019-02-21T16:46:16.445Z,12.40
2019-02-21T16:48:46.421Z,12.40
2019-02-21T16:51:18.406Z,12.30
2019-02-21T16:53:48.616Z,12.30
2019-02-21T16:56:18.214Z,12.10
2019-02-21T16:58:48.051Z,12.10
2019-02-21T17:01:17.575Z,12.00
2019-02-21T17:03:50.860Z,12.00
2019-02-21T17:06:20.708Z,11.90
2019-02-21T17:08:50.230Z,11.90
2019-02-21T17:11:20.261Z,11.90
2019-02-21T17:13:50.491Z,11.80
2019-02-21T17:16:20.170Z,11.80
2019-02-21T17:18:52.185Z,11.70
2019-02-21T17:21:22.062Z,11.60
2019-02-21T17:23:51.618Z,11.60
2019-02-21T17:26:22.334Z,11.60
2019-02-21T17:28:51.748Z,11.60
2019-02-21T17:31:21.294Z,11.60
2019-02-21T17:33:51.041Z,11.50
2019-02-21T17:36:20.575Z,11.50
2019-02-21T17:38:49.998Z,11.40
2019-02-21T17:41:19.482Z,11.40
2019-02-21T17:43:48.861Z,11.30
2019-02-21T17:46:18.299Z,11.30
2019-02-21T17:48:47.793Z,11.30
2019-02-21T17:51:17.218Z,11.30
2019-02-21T17:53:47.002Z,11.20
2019-02-21T17:56:16.398Z,11.20
2019-02-21T17:58:45.875Z,11.20
2019-02-21T18:01:15.425Z,11.20
2019-02-21T18:03:44.842Z,11.20
2019-02-21T18:06:14.561Z,11.20
2019-02-21T18:08:43.976Z,11.20
2019-02-21T18:11:13.366Z,11.20
2019-02-21T18:13:42.800Z,11.20
2019-02-21T18:16:12.231Z,11.10
2019-02-21T18:18:41.717Z,11.10
2019-02-21T18:21:11.124Z,11.10
2019-02-21T18:23:40.467Z,11.00
2019-02-21T18:26:18.680Z,11.10
2019-02-21T18:28:48.169Z,11.10
2019-02-21T18:31:18.035Z,11.00
2019-02-21T18:34:24.257Z,11.00
2019-02-21T18:36:53.725Z,11.00
2019-02-21T18:39:23.253Z,11.00
2019-02-21T18:41:52.677Z,11.00
2019-02-21T18:44:22.094Z,11.00
2019-02-21T18:46:51.502Z,11.00
2019-02-21T18:49:20.902Z,11.00
2019-02-21T18:51:50.395Z,11.00
2019-02-21T18:54:19.791Z,11.00
2019-02-21T18:56:49.211Z,11.00
2019-02-21T18:59:19.026Z,11.00
2019-02-21T19:01:48.460Z,11.00
2019-02-21T19:04:17.908Z,11.00
2019-02-21T19:06:47.352Z,11.00
2019-02-21T19:09:16.751Z,10.90
2019-02-21T19:11:46.281Z,10.90
2019-02-21T19:14:16.070Z,10.80
2019-02-21T19:16:45.770Z,10.90
2019-02-21T19:19:15.359Z,10.90
2019-02-21T19:21:44.841Z,10.90
2019-02-21T19:24:14.336Z,10.80
2019-02-21T19:26:44.166Z,10.90
2019-02-21T19:29:13.589Z,10.90
2019-02-21T19:31:43.956Z,10.90
2019-02-21T19:34:13.472Z,10.80
2019-02-21T19:36:42.926Z,10.80
2019-02-21T19:39:12.968Z,10.80
2019-02-21T19:41:42.383Z,10.80
2019-02-21T19:44:11.773Z,10.90
2019-02-21T19:46:41.180Z,10.80
2019-02-21T19:49:10.658Z,10.80
2019-02-21T19:51:40.390Z,10.80
2019-02-21T19:54:09.842Z,10.80
2019-02-21T19:56:39.280Z,10.90
2019-02-21T19:59:08.729Z,10.90
2019-02-21T20:01:38.176Z,10.90
2019-02-21T20:04:07.598Z,10.90
2019-02-21T20:06:37.006Z,10.80
2019-02-21T20:09:07.501Z,10.80
2019-02-21T20:11:37.254Z,10.80
2019-02-21T20:14:06.763Z,10.70
2019-02-21T20:16:36.279Z,10.70
2019-02-21T20:19:05.744Z,10.80
2019-02-21T20:21:35.245Z,10.70
2019-02-21T20:24:04.771Z,10.70
2019-02-21T20:26:34.262Z,10.70
2019-02-21T20:29:03.676Z,10.80
2019-02-21T20:31:33.441Z,10.70
2019-02-21T20:34:06.275Z,10.80
2019-02-21T20:36:35.580Z,10.80
2019-02-21T20:39:06.417Z,10.80
2019-02-21T20:41:35.905Z,10.80
2019-02-21T20:44:05.320Z,10.80
2019-02-21T20:46:34.746Z,10.80
2019-02-21T20:49:04.369Z,10.80
2019-02-21T20:51:34.776Z,10.80
2019-02-21T20:54:04.253Z,10.80
2019-02-21T20:56:33.794Z,10.70
2019-02-21T20:59:03.249Z,10.80
2019-02-21T21:01:32.733Z,10.80
2019-02-21T21:04:02.501Z,10.70
2019-02-21T21:06:32.310Z,10.80
2019-02-21T21:09:01.768Z,10.70
2019-02-21T21:11:31.943Z,10.80
2019-02-21T21:14:01.467Z,10.80
2019-02-21T21:16:30.901Z,10.80
2019-02-21T21:19:00.421Z,10.80
2019-02-21T21:21:29.824Z,10.80
2019-02-21T21:23:59.186Z,10.80
2019-02-21T21:26:28.983Z,10.70
2019-02-21T21:28:58.367Z,10.70
2019-02-21T21:31:27.887Z,10.70
2019-02-21T21:33:57.287Z,10.70
2019-02-21T21:36:28.115Z,10.70
2019-02-21T21:38:58.226Z,10.70
2019-02-21T21:41:27.741Z,10.70
2019-02-21T21:43:57.142Z,10.70
2019-02-21T21:46:26.569Z,10.70
2019-02-21T21:48:56.075Z,10.70
2019-02-21T21:51:25.589Z,10.80
2019-02-21T21:53:55.091Z,10.80
2019-02-21T21:56:24.483Z,10.80
2019-02-21T21:58:54.279Z,10.80
2019-02-21T22:01:23.698Z,10.80
2019-02-21T22:03:53.204Z,10.80
2019-02-21T22:06:22.622Z,10.80
2019-02-21T22:08:52.066Z,10.70
2019-02-21T22:11:21.465Z,10.60
2019-02-21T22:13:50.862Z,10.60
2019-02-21T22:16:20.260Z,10.60
2019-02-21T22:18:49.764Z,10.60
2019-02-21T22:21:19.184Z,10.70
2019-02-21T22:23:48.623Z,10.60
2019-02-21T22:26:18.072Z,10.60
2019-02-21T22:28:47.553Z,10.70
2019-02-21T22:31:17.005Z,10.60
2019-02-21T22:33:46.542Z,10.60
2019-02-21T22:36:15.998Z,10.60
2019-02-21T22:38:45.473Z,10.60
2019-02-21T22:41:14.977Z,10.70
2019-02-21T22:43:44.523Z,10.70
2019-02-21T22:46:14.095Z,10.60
2019-02-21T22:48:47.229Z,10.60
2019-02-21T22:51:14.691Z,10.50
2019-02-21T22:53:44.130Z,10.60
2019-02-21T22:56:13.548Z,10.60
2019-02-21T22:58:45.278Z,10.50
2019-02-21T23:01:38.194Z,10.60
2019-02-21T23:04:23.586Z,10.50
2019-02-21T23:07:17.120Z,10.50
2019-02-21T23:09:48.606Z,10.50
2019-02-21T23:12:18.127Z,10.50
2019-02-21T23:14:47.529Z,10.50
2019-02-21T23:17:16.989Z,10.50
2019-02-21T23:19:46.427Z,10.50
2019-02-21T23:22:15.851Z,10.50
2019-02-21T23:24:45.667Z,10.50
2019-02-21T23:27:15.121Z,10.50
2019-02-21T23:29:44.533Z,10.50
2019-02-21T23:32:14.026Z,10.50
2019-02-21T23:34:45.151Z,10.50
2019-02-21T23:37:14.608Z,10.50
2019-02-21T23:39:43.993Z,10.50
2019-02-21T23:42:13.512Z,10.50
2019-02-21T23:44:42.921Z,10.50
2019-02-21T23:47:12.365Z,10.50
2019-02-21T23:49:41.724Z,10.50
2019-02-21T23:52:11.161Z,10.40
2019-02-21T23:54:40.538Z,10.40
2019-02-21T23:57:09.992Z,10.40
2019-02-21T23:59:39.444Z,10.50
